Time;durP1;ratioP1;P1;durP2;ratioP2;P2;SDS_P1;SDS_P2;PMS_P1;PMS_P2;Temp;Humidity;BMP_temperature;BMP_pressure;BME280_temperature;BME280_humidity;BME280_pressure;Samples;Min_cycle;Max_cycle;Signal;HPM_P1;HPM_P2
2022/08/09 00:01:56;;;;;;;;;;;23.10;49.70;;;;;;4986672;28;20005;-86
2022/08/09 00:04:22;;;;;;;;;;;23.10;49.80;;;;;;4986736;28;19910;-86
2022/08/09 00:06:48;;;;;;;;;;;23.10;49.70;;;;;;4969032;28;20666;-86
2022/08/09 00:09:14;;;;;;;;;;;23.00;49.60;;;;;;4986779;28;19913;-87
2022/08/09 00:11:40;;;;;;;;;;;23.00;49.70;;;;;;4983379;28;19920;-87
2022/08/09 00:14:06;;;;;;;;;;;23.00;49.70;;;;;;4955544;28;19925;-86
2022/08/09 00:16:31;;;;;;;;;;;23.00;50.00;;;;;;4986557;28;20454;-87
2022/08/09 00:18:57;;;;;;;;;;;22.80;50.20;;;;;;4969117;28;20405;-86
2022/08/09 00:21:23;;;;;;;;;;;22.90;50.00;;;;;;4986473;28;19910;-86
2022/08/09 00:23:48;;;;;;;;;;;22.70;50.60;;;;;;4986616;28;19910;-86
2022/08/09 00:26:14;;;;;;;;;;;22.80;50.40;;;;;;4986614;28;20496;-84
2022/08/09 00:28:40;;;;;;;;;;;22.80;50.20;;;;;;4986094;28;19995;-85
2022/08/09 00:31:05;;;;;;;;;;;22.90;50.00;;;;;;4983977;28;20379;-86
2022/08/09 00:33:31;;;;;;;;;;;22.70;50.70;;;;;;4986615;28;19917;-85
2022/08/09 00:35:58;;;;;;;;;;;22.60;51.30;;;;;;4986353;28;20390;-86
2022/08/09 00:38:24;;;;;;;;;;;22.50;51.20;;;;;;4986234;28;20698;-86
2022/08/09 00:40:49;;;;;;;;;;;22.40;51.60;;;;;;4986475;28;19916;-85
2022/08/09 00:43:15;;;;;;;;;;;22.80;50.40;;;;;;4968072;28;20752;-86
2022/08/09 00:45:41;;;;;;;;;;;22.50;51.20;;;;;;4981370;28;19909;-85
2022/08/09 00:48:06;;;;;;;;;;;22.20;51.70;;;;;;4978355;28;20409;-85
2022/08/09 00:50:32;;;;;;;;;;;22.30;51.70;;;;;;4986346;28;19920;-86
2022/08/09 00:52:58;;;;;;;;;;;22.20;52.10;;;;;;4986045;28;19910;-86
2022/08/09 00:55:24;;;;;;;;;;;22.10;52.20;;;;;;4986181;28;20016;-86
2022/08/09 00:57:49;;;;;;;;;;;22.20;52.10;;;;;;4985861;28;20518;-86
2022/08/09 01:00:15;;;;;;;;;;;22.20;51.90;;;;;;4986128;28;19912;-85
2022/08/09 01:02:48;;;;;;;;;;;22.40;51.20;;;;;;4985497;28;19910;-86
2022/08/09 01:05:14;;;;;;;;;;;22.30;51.60;;;;;;4986189;28;19909;-86
2022/08/09 01:07:39;;;;;;;;;;;22.30;51.70;;;;;;4968109;28;19916;-85
2022/08/09 01:10:12;;;;;;;;;;;22.40;51.30;;;;;;4986054;28;19910;-86
2022/08/09 01:12:41;;;;;;;;;;;22.20;51.70;;;;;;4982826;28;19909;-86
2022/08/09 01:15:09;;;;;;;;;;;22.10;51.90;;;;;;4968483;28;20560;-86
2022/08/09 01:17:39;;;;;;;;;;;22.10;52.10;;;;;;4985702;28;19921;-86
2022/08/09 01:20:18;;;;;;;;;;;22.10;52.30;;;;;;4985643;28;20342;-86
2022/08/09 01:23:02;;;;;;;;;;;22.00;52.30;;;;;;4985487;28;19909;-86
2022/08/09 01:25:36;;;;;;;;;;;21.90;52.70;;;;;;4986162;28;19916;-86
2022/08/09 01:28:04;;;;;;;;;;;21.80;52.70;;;;;;4985140;28;19964;-86
2022/08/09 01:30:30;;;;;;;;;;;21.80;52.70;;;;;;4985658;28;20450;-86
2022/08/09 01:32:56;;;;;;;;;;;21.80;53.00;;;;;;4985588;28;19956;-85
2022/08/09 01:35:40;;;;;;;;;;;21.80;52.90;;;;;;4985856;28;19910;-86
2022/08/09 01:38:08;;;;;;;;;;;21.80;52.80;;;;;;4968087;28;19924;-86
2022/08/09 01:40:34;;;;;;;;;;;21.60;53.30;;;;;;4984771;28;19910;-86
2022/08/09 01:43:00;;;;;;;;;;;21.60;53.20;;;;;;4967357;28;19909;-86
2022/08/09 01:45:26;;;;;;;;;;;21.60;53.30;;;;;;4965249;28;20349;-86
2022/08/09 01:47:52;;;;;;;;;;;21.70;52.90;;;;;;4975395;28;19991;-86
2022/08/09 01:50:22;;;;;;;;;;;21.60;53.20;;;;;;4984990;28;19910;-86
2022/08/09 01:52:47;;;;;;;;;;;21.50;53.50;;;;;;4967554;28;20043;-86
2022/08/09 01:55:14;;;;;;;;;;;21.50;53.40;;;;;;4985400;28;20395;-85
2022/08/09 01:57:41;;;;;;;;;;;21.50;53.30;;;;;;4967149;28;19918;-85
2022/08/09 02:00:08;;;;;;;;;;;21.40;53.60;;;;;;4967112;28;19910;-86
2022/08/09 02:02:35;;;;;;;;;;;21.50;53.40;;;;;;4967499;28;19915;-86
2022/08/09 02:05:07;;;;;;;;;;;21.50;53.50;;;;;;4985078;28;19914;-86
2022/08/09 02:07:38;;;;;;;;;;;21.50;53.60;;;;;;4984641;28;20306;-85
2022/08/09 02:10:06;;;;;;;;;;;21.60;53.10;;;;;;4965881;28;19921;-87
2022/08/09 02:12:33;;;;;;;;;;;21.60;53.30;;;;;;4966508;28;19909;-86
2022/08/09 02:14:59;;;;;;;;;;;21.40;53.70;;;;;;4972342;28;20430;-85
2022/08/09 02:17:27;;;;;;;;;;;21.40;53.70;;;;;;4981006;28;20389;-87
2022/08/09 02:19:53;;;;;;;;;;;21.40;53.60;;;;;;4976462;28;19909;-86
2022/08/09 02:22:21;;;;;;;;;;;21.30;53.80;;;;;;4967359;28;19906;-86
2022/08/09 02:24:51;;;;;;;;;;;21.10;54.10;;;;;;4984846;28;20713;-86
2022/08/09 02:27:18;;;;;;;;;;;21.10;54.10;;;;;;4972045;28;19917;-86
2022/08/09 02:29:45;;;;;;;;;;;21.10;54.30;;;;;;4984882;28;19910;-86
2022/08/09 02:32:12;;;;;;;;;;;21.00;54.50;;;;;;4984505;28;20345;-86
2022/08/09 02:34:40;;;;;;;;;;;21.20;54.30;;;;;;4985117;28;20011;-87
2022/08/09 02:37:10;;;;;;;;;;;21.00;54.50;;;;;;4985030;28;19968;-86
2022/08/09 02:39:38;;;;;;;;;;;21.00;54.60;;;;;;4966904;28;19964;-86
2022/08/09 02:42:08;;;;;;;;;;;20.90;54.90;;;;;;4984902;28;19918;-86
2022/08/09 02:44:36;;;;;;;;;;;20.80;55.20;;;;;;4972219;28;20371;-86
2022/08/09 02:47:03;;;;;;;;;;;20.80;55.30;;;;;;4984540;28;19905;-86
2022/08/09 02:49:29;;;;;;;;;;;20.80;55.30;;;;;;4984465;28;20310;-86
2022/08/09 02:51:57;;;;;;;;;;;20.80;55.40;;;;;;4985133;28;19914;-86
2022/08/09 02:54:24;;;;;;;;;;;20.70;55.20;;;;;;4970221;28;20020;-86
2022/08/09 02:56:50;;;;;;;;;;;20.80;55.20;;;;;;4988327;28;19925;-87
2022/08/09 02:59:17;;;;;;;;;;;20.70;55.30;;;;;;4988551;28;19920;-86
2022/08/09 03:01:43;;;;;;;;;;;20.60;55.50;;;;;;4988213;28;19948;-87
2022/08/09 03:04:09;;;;;;;;;;;20.60;55.60;;;;;;4970692;28;19949;-86
2022/08/09 03:06:36;;;;;;;;;;;20.50;55.70;;;;;;4988087;28;20364;-86
2022/08/09 03:09:02;;;;;;;;;;;20.50;55.80;;;;;;4987402;28;19910;-87
2022/08/09 03:11:29;;;;;;;;;;;20.40;56.20;;;;;;4977684;28;20000;-87
2022/08/09 03:13:55;;;;;;;;;;;20.40;56.30;;;;;;4988238;28;19957;-86
2022/08/09 03:16:21;;;;;;;;;;;20.30;56.40;;;;;;4987942;28;19960;-85
2022/08/09 03:18:46;;;;;;;;;;;20.20;56.60;;;;;;4974914;28;19933;-86
2022/08/09 03:21:14;;;;;;;;;;;20.20;56.70;;;;;;4970591;28;20286;-87
2022/08/09 03:23:44;;;;;;;;;;;20.20;56.80;;;;;;4987274;28;19977;-85
2022/08/09 03:26:09;;;;;;;;;;;20.20;56.80;;;;;;4987882;28;19917;-86
2022/08/09 03:28:35;;;;;;;;;;;20.20;56.90;;;;;;4987391;28;19913;-86
2022/08/09 03:31:01;;;;;;;;;;;20.20;57.00;;;;;;4988036;28;20322;-86
2022/08/09 03:33:28;;;;;;;;;;;20.10;57.20;;;;;;4987770;28;20410;-86
2022/08/09 03:35:53;;;;;;;;;;;20.00;57.40;;;;;;4987885;28;20298;-86
2022/08/09 03:38:19;;;;;;;;;;;20.00;57.50;;;;;;4987114;28;19910;-86
2022/08/09 03:40:44;;;;;;;;;;;20.00;57.50;;;;;;4987435;28;20421;-85
2022/08/09 03:43:10;;;;;;;;;;;20.00;57.60;;;;;;4987793;28;20375;-86
2022/08/09 03:45:36;;;;;;;;;;;20.00;57.50;;;;;;4969623;28;20406;-86
2022/08/09 03:48:01;;;;;;;;;;;20.00;57.50;;;;;;4987422;28;20345;-86
2022/08/09 03:50:27;;;;;;;;;;;19.90;57.70;;;;;;4987766;28;19909;-86
2022/08/09 03:52:54;;;;;;;;;;;19.90;57.70;;;;;;4986819;28;19910;-86
2022/08/09 03:55:20;;;;;;;;;;;19.80;58.00;;;;;;4986850;28;20024;-86
2022/08/09 03:57:47;;;;;;;;;;;19.80;57.90;;;;;;4986940;28;19920;-86
2022/08/09 04:00:13;;;;;;;;;;;19.80;58.00;;;;;;4987240;28;19920;-87
2022/08/09 04:02:41;;;;;;;;;;;19.70;58.00;;;;;;4987226;28;19909;-86
2022/08/09 04:05:08;;;;;;;;;;;19.70;58.30;;;;;;4986155;28;19909;-85
2022/08/09 04:07:34;;;;;;;;;;;19.60;58.40;;;;;;4986800;28;19932;-87
2022/08/09 04:09:59;;;;;;;;;;;19.80;57.90;;;;;;4987072;28;20424;-85
2022/08/09 04:12:25;;;;;;;;;;;19.70;57.90;;;;;;4979872;28;19909;-87
2022/08/09 04:14:50;;;;;;;;;;;19.70;57.90;;;;;;4986949;28;19906;-86
2022/08/09 04:17:16;;;;;;;;;;;19.60;58.20;;;;;;4982007;28;19918;-86
2022/08/09 04:19:41;;;;;;;;;;;19.50;58.40;;;;;;4979282;28;19929;-86
2022/08/09 04:22:07;;;;;;;;;;;19.50;58.40;;;;;;4986688;28;19909;-85
2022/08/09 04:24:32;;;;;;;;;;;19.50;58.70;;;;;;4987068;28;20012;-84
2022/08/09 04:26:58;;;;;;;;;;;19.40;58.50;;;;;;4986729;28;19920;-85
2022/08/09 04:29:23;;;;;;;;;;;19.50;58.30;;;;;;4987090;28;19977;-85
2022/08/09 04:31:50;;;;;;;;;;;19.50;58.60;;;;;;4986792;28;19916;-85
2022/08/09 04:34:16;;;;;;;;;;;19.40;58.70;;;;;;4986596;28;19910;-84
2022/08/09 04:36:41;;;;;;;;;;;19.40;59.00;;;;;;4986539;28;19949;-84
2022/08/09 04:39:10;;;;;;;;;;;19.40;58.90;;;;;;4969085;28;20000;-86
2022/08/09 04:41:36;;;;;;;;;;;19.50;58.70;;;;;;4986663;28;20433;-86
2022/08/09 04:44:02;;;;;;;;;;;19.40;59.00;;;;;;4986544;28;19909;-85
2022/08/09 04:46:27;;;;;;;;;;;19.30;59.00;;;;;;4986070;28;20004;-86
2022/08/09 04:48:53;;;;;;;;;;;19.30;59.20;;;;;;4986308;28;20012;-85
2022/08/09 04:51:18;;;;;;;;;;;19.40;59.10;;;;;;4986330;28;19916;-86
2022/08/09 04:53:44;;;;;;;;;;;19.30;59.10;;;;;;4986594;28;19914;-86
2022/08/09 04:56:10;;;;;;;;;;;19.30;59.10;;;;;;4986043;28;20514;-86
2022/08/09 04:58:35;;;;;;;;;;;19.40;59.00;;;;;;4986458;28;19961;-86
2022/08/09 05:01:01;;;;;;;;;;;19.40;59.00;;;;;;4968350;28;19910;-87
2022/08/09 05:03:26;;;;;;;;;;;19.90;57.90;;;;;;4985773;28;19910;-86
2022/08/09 05:05:52;;;;;;;;;;;20.70;56.00;;;;;;4985748;28;19910;-86
2022/08/09 05:08:18;;;;;;;;;;;21.00;55.30;;;;;;4986063;28;19917;-87
2022/08/09 05:10:43;;;;;;;;;;;21.30;54.60;;;;;;4981064;28;19953;-86
2022/08/09 05:13:09;;;;;;;;;;;21.60;54.20;;;;;;4983662;28;19909;-87
2022/08/09 05:15:34;;;;;;;;;;;21.80;53.80;;;;;;4985639;28;19957;-86
2022/08/09 05:18:00;;;;;;;;;;;22.00;53.30;;;;;;4974780;28;20009;-86
2022/08/09 05:20:26;;;;;;;;;;;22.00;53.20;;;;;;4983297;28;19909;-86
2022/08/09 05:22:54;;;;;;;;;;;22.30;53.10;;;;;;4985113;28;19910;-86
2022/08/09 05:25:20;;;;;;;;;;;22.50;53.20;;;;;;4985285;28;19918;-85
2022/08/09 05:27:45;;;;;;;;;;;22.70;52.20;;;;;;4985291;28;19916;-86
2022/08/09 05:30:11;;;;;;;;;;;22.70;52.10;;;;;;4985440;28;19906;-86
2022/08/09 05:32:37;;;;;;;;;;;22.90;51.80;;;;;;4985435;28;19909;-85
2022/08/09 05:35:04;;;;;;;;;;;22.80;51.80;;;;;;4985206;28;20021;-87
2022/08/09 05:37:29;;;;;;;;;;;22.90;51.90;;;;;;4985120;28;20402;-86
2022/08/09 05:39:55;;;;;;;;;;;23.00;51.40;;;;;;4985172;28;19909;-87
2022/08/09 05:42:21;;;;;;;;;;;23.10;51.50;;;;;;4984978;28;19978;-87
2022/08/09 05:44:47;;;;;;;;;;;23.30;51.10;;;;;;4985809;28;19926;-86
2022/08/09 05:47:13;;;;;;;;;;;23.70;50.60;;;;;;4967725;28;19910;-87
2022/08/09 05:49:38;;;;;;;;;;;23.70;50.20;;;;;;4985022;28;19910;-87
2022/08/09 05:52:04;;;;;;;;;;;23.90;50.10;;;;;;4967642;28;19914;-87
2022/08/09 05:54:29;;;;;;;;;;;24.30;50.10;;;;;;4985348;28;19929;-87
2022/08/09 05:56:55;;;;;;;;;;;24.50;49.40;;;;;;4967737;28;20095;-86
2022/08/09 05:59:20;;;;;;;;;;;24.50;49.50;;;;;;4985269;28;19909;-87
2022/08/09 06:01:46;;;;;;;;;;;24.50;49.30;;;;;;4967649;28;19909;-88
2022/08/09 06:04:11;;;;;;;;;;;25.50;48.10;;;;;;4984835;28;20057;-88
2022/08/09 06:06:37;;;;;;;;;;;25.20;48.10;;;;;;4967474;28;19960;-87
2022/08/09 06:09:03;;;;;;;;;;;25.20;48.50;;;;;;4985433;28;19932;-87
2022/08/09 06:11:28;;;;;;;;;;;25.40;48.10;;;;;;4959823;28;19968;-88
2022/08/09 06:13:54;;;;;;;;;;;25.80;47.90;;;;;;4984571;28;19936;-86
2022/08/09 06:16:22;;;;;;;;;;;25.50;48.20;;;;;;4984493;28;19918;-88
2022/08/09 06:18:47;;;;;;;;;;;25.60;48.10;;;;;;4971614;28;20005;-88
2022/08/09 06:21:13;;;;;;;;;;;25.60;47.40;;;;;;4984805;28;20004;-87
2022/08/09 06:23:39;;;;;;;;;;;25.90;47.50;;;;;;4984595;28;19910;-87
2022/08/09 06:26:04;;;;;;;;;;;26.10;46.80;;;;;;4967014;28;19914;-88
2022/08/09 06:28:30;;;;;;;;;;;26.60;46.50;;;;;;4987113;28;19910;-87
2022/08/09 06:30:55;;;;;;;;;;;27.20;46.00;;;;;;4975260;28;20446;-88
2022/08/09 06:33:21;;;;;;;;;;;26.90;45.80;;;;;;4970603;28;20550;-88
2022/08/09 06:35:46;;;;;;;;;;;26.40;46.50;;;;;;4988418;28;19925;-87
2022/08/09 06:38:12;;;;;;;;;;;26.10;46.80;;;;;;4988363;28;19910;-86
2022/08/09 06:40:38;;;;;;;;;;;26.80;46.80;;;;;;4988161;28;19914;-87
2022/08/09 06:43:03;;;;;;;;;;;27.10;46.50;;;;;;4988976;28;20287;-89
2022/08/09 06:45:29;;;;;;;;;;;27.00;45.90;;;;;;4988770;28;19916;-88
2022/08/09 06:47:55;;;;;;;;;;;27.10;45.80;;;;;;4988318;28;19913;-88
2022/08/09 06:50:20;;;;;;;;;;;26.90;45.10;;;;;;4970849;28;20122;-89
2022/08/09 06:52:46;;;;;;;;;;;26.70;46.10;;;;;;4987906;28;20349;-88
2022/08/09 06:55:12;;;;;;;;;;;27.80;45.20;;;;;;4971092;28;20569;-89
2022/08/09 06:57:38;;;;;;;;;;;27.70;45.10;;;;;;4988161;28;20294;-89
2022/08/09 07:00:04;;;;;;;;;;;27.40;44.70;;;;;;4970731;28;19910;-88
2022/08/09 07:02:30;;;;;;;;;;;27.70;44.90;;;;;;4988067;28;19953;-90
2022/08/09 07:04:55;;;;;;;;;;;28.10;44.10;;;;;;4988234;28;19948;-89
2022/08/09 07:07:21;;;;;;;;;;;28.00;44.50;;;;;;4988118;28;19949;-89
2022/08/09 07:09:46;;;;;;;;;;;28.40;44.00;;;;;;4970644;28;20409;-89
2022/08/09 07:12:12;;;;;;;;;;;28.90;43.70;;;;;;4981212;28;19910;-90
2022/08/09 07:14:38;;;;;;;;;;;29.20;43.20;;;;;;4970845;28;19916;-89
2022/08/09 07:17:03;;;;;;;;;;;29.40;42.40;;;;;;4984379;28;19964;-88
2022/08/09 07:19:29;;;;;;;;;;;29.40;42.40;;;;;;4978253;28;20351;-88
2022/08/09 07:21:54;;;;;;;;;;;29.70;42.50;;;;;;4987836;28;19964;-87
2022/08/09 07:24:20;;;;;;;;;;;30.30;42.10;;;;;;4987963;28;20383;-88
2022/08/09 07:26:45;;;;;;;;;;;29.80;42.10;;;;;;4987570;28;19916;-87
2022/08/09 07:29:11;;;;;;;;;;;30.30;41.90;;;;;;4987673;28;19916;-86
2022/08/09 07:31:37;;;;;;;;;;;31.00;41.40;;;;;;4987963;28;19916;-88
2022/08/09 07:34:02;;;;;;;;;;;31.80;41.50;;;;;;4987754;28;19913;-88
2022/08/09 07:36:29;;;;;;;;;;;32.10;40.30;;;;;;4987671;28;19918;-87
2022/08/09 07:38:56;;;;;;;;;;;32.10;39.90;;;;;;4985921;28;19921;-89
2022/08/09 07:41:22;;;;;;;;;;;32.60;39.60;;;;;;4987665;28;19910;-88
2022/08/09 07:43:47;;;;;;;;;;;32.50;39.90;;;;;;4987171;28;19925;-87
2022/08/09 07:46:13;;;;;;;;;;;32.20;40.30;;;;;;4987212;28;19909;-87
2022/08/09 07:48:39;;;;;;;;;;;32.60;40.00;;;;;;4969527;28;20004;-88
2022/08/09 07:51:04;;;;;;;;;;;32.90;39.10;;;;;;4987434;28;20007;-89
2022/08/09 07:53:30;;;;;;;;;;;33.70;38.70;;;;;;4987382;28;19909;-88
2022/08/09 07:55:55;;;;;;;;;;;33.30;39.20;;;;;;4987135;28;19922;-87
2022/08/09 07:58:22;;;;;;;;;;;33.70;38.90;;;;;;4987052;28;20633;-87
2022/08/09 08:00:48;;;;;;;;;;;33.40;39.10;;;;;;4987506;28;20326;-88
2022/08/09 08:03:14;;;;;;;;;;;34.20;38.40;;;;;;4986977;28;19916;-87
2022/08/09 08:05:39;;;;;;;;;;;34.80;38.40;;;;;;4969314;28;19909;-88
2022/08/09 08:08:05;;;;;;;;;;;34.30;38.90;;;;;;4987270;28;19921;-87
2022/08/09 08:10:31;;;;;;;;;;;33.20;39.30;;;;;;4984153;28;19946;-87
2022/08/09 08:12:56;;;;;;;;;;;32.30;39.90;;;;;;4983071;28;19917;-88
2022/08/09 08:15:22;;;;;;;;;;;31.70;40.00;;;;;;4986869;28;19924;-88
2022/08/09 08:17:52;;;;;;;;;;;31.20;41.10;;;;;;4977844;28;19928;-88
2022/08/09 08:20:21;;;;;;;;;;;30.80;41.20;;;;;;4965863;28;20502;-87
2022/08/09 08:22:46;;;;;;;;;;;30.50;41.70;;;;;;4986544;28;19911;-87
2022/08/09 08:25:12;;;;;;;;;;;31.60;40.80;;;;;;4986873;28;20287;-87
2022/08/09 08:27:37;;;;;;;;;;;32.30;40.30;;;;;;4968847;28;19916;-87
2022/08/09 08:30:03;;;;;;;;;;;33.10;39.70;;;;;;4969619;28;20004;-87
2022/08/09 08:32:29;;;;;;;;;;;32.90;39.90;;;;;;4986674;28;20695;-88
2022/08/09 08:34:56;;;;;;;;;;;33.40;39.50;;;;;;4986899;28;19913;-87
2022/08/09 08:37:21;;;;;;;;;;;34.20;38.80;;;;;;4972875;28;19914;-89
2022/08/09 08:39:47;;;;;;;;;;;33.90;38.80;;;;;;4986558;28;19929;-87
2022/08/09 08:42:15;;;;;;;;;;;33.70;38.60;;;;;;4986075;28;19936;-88
2022/08/09 08:44:42;;;;;;;;;;;33.20;39.60;;;;;;4986798;28;20291;-88
2022/08/09 08:47:08;;;;;;;;;;;35.10;38.80;;;;;;4986564;28;19917;-88
2022/08/09 08:49:37;;;;;;;;;;;35.60;37.80;;;;;;4985811;28;19909;-87
2022/08/09 08:52:03;;;;;;;;;;;36.00;37.50;;;;;;4986239;28;19910;-87
2022/08/09 08:54:29;;;;;;;;;;;36.00;37.60;;;;;;4985707;28;19910;-88
2022/08/09 08:56:55;;;;;;;;;;;35.90;37.80;;;;;;4985561;28;19926;-88
2022/08/09 08:59:21;;;;;;;;;;;36.70;37.90;;;;;;4985996;28;19956;-88
2022/08/09 09:01:48;;;;;;;;;;;37.10;37.10;;;;;;4985699;28;19910;-88
2022/08/09 09:04:15;;;;;;;;;;;37.30;37.10;;;;;;4985888;28;20421;-88
2022/08/09 09:06:41;;;;;;;;;;;37.80;36.10;;;;;;4986063;28;19949;-87
2022/08/09 09:09:08;;;;;;;;;;;37.90;36.90;;;;;;4986236;28;19906;-88
2022/08/09 09:11:34;;;;;;;;;;;37.30;36.70;;;;;;4978277;28;20434;-88
2022/08/09 09:14:02;;;;;;;;;;;38.10;35.80;;;;;;4968075;28;19910;-88
2022/08/09 09:16:32;;;;;;;;;;;38.60;35.90;;;;;;4985293;28;19928;-87
2022/08/09 09:19:02;;;;;;;;;;;38.80;35.80;;;;;;4972616;28;20398;-87
2022/08/09 09:21:27;;;;;;;;;;;38.20;35.70;;;;;;4985800;28;19909;-87
2022/08/09 09:23:53;;;;;;;;;;;39.40;35.20;;;;;;4985540;28;19910;-88
2022/08/09 09:26:21;;;;;;;;;;;39.60;35.50;;;;;;4985133;28;20438;-88
2022/08/09 09:28:47;;;;;;;;;;;39.10;35.60;;;;;;4985070;28;19999;-88
2022/08/09 09:31:14;;;;;;;;;;;38.90;36.00;;;;;;4985112;28;20436;-88
2022/08/09 09:33:40;;;;;;;;;;;39.10;35.30;;;;;;4984929;28;19976;-88
2022/08/09 09:36:07;;;;;;;;;;;39.10;34.80;;;;;;4985281;28;19956;-88
2022/08/09 09:38:38;;;;;;;;;;;39.50;34.20;;;;;;4985237;28;19948;-88
2022/08/09 09:41:04;;;;;;;;;;;39.70;35.00;;;;;;4985105;28;19910;-88
2022/08/09 09:43:30;;;;;;;;;;;40.00;34.40;;;;;;4984991;28;19916;-88
2022/08/09 09:45:56;;;;;;;;;;;40.40;34.20;;;;;;4985420;28;20272;-88
2022/08/09 09:48:22;;;;;;;;;;;39.90;34.50;;;;;;4984943;28;20463;-89
2022/08/09 09:50:49;;;;;;;;;;;40.00;34.50;;;;;;4984755;28;19939;-87
2022/08/09 09:53:19;;;;;;;;;;;40.10;34.10;;;;;;4985157;28;19910;-88
2022/08/09 09:55:59;;;;;;;;;;;39.80;33.80;;;;;;4984538;28;19921;-88
2022/08/09 09:58:26;;;;;;;;;;;40.20;33.40;;;;;;4984829;28;20652;-88
2022/08/09 10:00:53;;;;;;;;;;;39.10;33.90;;;;;;4984955;28;20406;-88
2022/08/09 10:03:35;;;;;;;;;;;39.40;34.10;;;;;;4984312;28;19910;-88
2022/08/09 10:06:01;;;;;;;;;;;39.60;33.60;;;;;;4984576;28;19913;-88
2022/08/09 10:08:26;;;;;;;;;;;39.60;33.60;;;;;;4984911;28;20723;-88
2022/08/09 10:10:52;;;;;;;;;;;40.50;33.40;;;;;;4978314;28;20363;-87
2022/08/09 10:13:18;;;;;;;;;;;40.70;33.20;;;;;;4983762;28;19917;-88
2022/08/09 10:15:50;;;;;;;;;;;40.00;33.20;;;;;;4984698;28;20418;-87
2022/08/09 10:18:16;;;;;;;;;;;40.00;33.90;;;;;;4971650;28;19933;-88
2022/08/09 10:20:42;;;;;;;;;;;40.00;33.60;;;;;;4985013;28;19906;-88
2022/08/09 10:23:18;;;;;;;;;;;38.70;34.20;;;;;;4984378;28;19910;-88
2022/08/09 10:25:45;;;;;;;;;;;39.80;33.40;;;;;;4984289;28;19909;-88
2022/08/09 10:28:11;;;;;;;;;;;38.40;33.70;;;;;;4984651;28;19916;-89
2022/08/09 10:30:36;;;;;;;;;;;36.20;34.30;;;;;;4984563;28;19906;-88
2022/08/09 10:33:03;;;;;;;;;;;35.40;35.60;;;;;;4984722;28;19910;-88
2022/08/09 10:35:29;;;;;;;;;;;35.90;36.20;;;;;;4984240;28;19910;-88
2022/08/09 10:37:55;;;;;;;;;;;36.10;35.10;;;;;;4983928;28;19928;-88
2022/08/09 10:40:22;;;;;;;;;;;35.10;35.80;;;;;;4984338;28;19912;-87
2022/08/09 10:42:48;;;;;;;;;;;34.30;36.30;;;;;;4984339;28;19917;-88
2022/08/09 10:45:13;;;;;;;;;;;34.10;35.80;;;;;;4984580;28;19910;-88
2022/08/09 10:47:44;;;;;;;;;;;33.80;36.20;;;;;;4984469;28;19916;-87
2022/08/09 10:50:22;;;;;;;;;;;34.10;35.90;;;;;;4984489;28;19910;-88
2022/08/09 10:53:04;;;;;;;;;;;34.40;35.20;;;;;;4966384;28;19917;-88
2022/08/09 10:55:31;;;;;;;;;;;34.30;34.80;;;;;;4984339;28;19922;-87
2022/08/09 10:57:56;;;;;;;;;;;34.20;35.10;;;;;;4983850;28;20016;-86
2022/08/09 11:00:28;;;;;;;;;;;34.10;35.10;;;;;;4984427;28;20401;-87
2022/08/09 11:02:54;;;;;;;;;;;33.90;35.40;;;;;;4984374;28;19909;-86
2022/08/09 11:05:21;;;;;;;;;;;34.20;35.70;;;;;;4966622;28;20615;-87
2022/08/09 11:07:47;;;;;;;;;;;34.00;35.00;;;;;;4983777;28;20330;-87
2022/08/09 11:10:13;;;;;;;;;;;33.90;35.30;;;;;;4983252;28;19910;-87
2022/08/09 11:12:39;;;;;;;;;;;33.60;35.70;;;;;;4977922;28;19917;-87
2022/08/09 11:15:17;;;;;;;;;;;33.90;35.60;;;;;;4969978;28;19963;-87
2022/08/09 11:17:44;;;;;;;;;;;33.40;34.80;;;;;;4979422;28;19973;-87
2022/08/09 11:20:10;;;;;;;;;;;33.70;34.70;;;;;;4983682;28;19914;-87
2022/08/09 11:22:39;;;;;;;;;;;33.40;35.00;;;;;;4969738;28;19909;-86
2022/08/09 11:25:07;;;;;;;;;;;33.20;35.20;;;;;;4987849;28;19910;-87
2022/08/09 11:27:40;;;;;;;;;;;33.50;35.10;;;;;;4987689;28;19916;-87
2022/08/09 11:30:05;;;;;;;;;;;33.90;36.30;;;;;;4987810;28;19910;-87
2022/08/09 11:32:43;;;;;;;;;;;33.90;34.20;;;;;;4987411;28;20473;-87
2022/08/09 11:35:21;;;;;;;;;;;33.90;35.20;;;;;;4987967;28;20032;-87
2022/08/09 11:37:47;;;;;;;;;;;33.90;35.40;;;;;;4961513;28;19928;-86
2022/08/09 11:40:14;;;;;;;;;;;33.50;34.70;;;;;;4969766;28;19909;-87
2022/08/09 11:42:42;;;;;;;;;;;33.40;35.30;;;;;;4987422;28;19910;-87
2022/08/09 11:45:28;;;;;;;;;;;33.10;34.50;;;;;;4987378;28;20404;-87
2022/08/09 11:48:14;;;;;;;;;;;33.10;34.30;;;;;;4926124;29;19917;-86
2022/08/09 11:51:00;;;;;;;;;;;33.30;34.30;;;;;;4925407;29;19918;-87
2022/08/09 11:53:25;;;;;;;;;;;33.60;35.90;;;;;;4926087;29;19915;-87
2022/08/09 11:55:55;;;;;;;;;;;33.90;37.30;;;;;;4926127;29;20444;-87
2022/08/09 11:58:22;;;;;;;;;;;33.70;34.70;;;;;;4910137;29;19918;-86
2022/08/09 12:00:52;;;;;;;;;;;33.30;34.50;;;;;;4926262;29;19911;-87
2022/08/09 12:03:18;;;;;;;;;;;33.20;34.80;;;;;;4925748;29;19917;-87
2022/08/09 12:05:45;;;;;;;;;;;33.20;35.90;;;;;;4925654;29;19911;-87
2022/08/09 12:08:11;;;;;;;;;;;33.10;35.50;;;;;;4925672;29;19950;-87
2022/08/09 12:10:57;;;;;;;;;;;33.10;35.50;;;;;;4922068;29;19911;-88
2022/08/09 12:13:30;;;;;;;;;;;33.10;35.50;;;;;;4924862;29;19932;-87
2022/08/09 12:16:03;;;;;;;;;;;33.20;35.20;;;;;;4926118;29;19915;-87
2022/08/09 12:18:29;;;;;;;;;;;33.10;35.00;;;;;;4925442;29;20105;-87
2022/08/09 12:20:55;;;;;;;;;;;33.40;36.90;;;;;;4925204;29;20384;-87
2022/08/09 12:23:21;;;;;;;;;;;33.50;37.60;;;;;;4909598;29;20396;-87
2022/08/09 12:25:47;;;;;;;;;;;33.40;35.50;;;;;;4973581;28;19910;-86
2022/08/09 12:28:15;;;;;;;;;;;33.40;36.00;;;;;;4985797;28;19933;-87
2022/08/09 12:30:41;;;;;;;;;;;33.50;36.00;;;;;;4985729;28;19917;-87
2022/08/09 12:33:07;;;;;;;;;;;33.40;34.80;;;;;;4986214;28;19952;-87
2022/08/09 12:35:33;;;;;;;;;;;33.10;35.10;;;;;;4985603;28;20269;-87
2022/08/09 12:38:14;;;;;;;;;;;33.00;35.00;;;;;;4985877;28;20061;-87
2022/08/09 12:40:44;;;;;;;;;;;33.10;35.40;;;;;;4985804;28;19909;-87
2022/08/09 12:43:10;;;;;;;;;;;33.10;35.00;;;;;;4986347;28;19910;-87
2022/08/09 12:45:35;;;;;;;;;;;33.10;34.70;;;;;;4986256;28;19988;-87
2022/08/09 12:48:02;;;;;;;;;;;33.00;34.80;;;;;;4986230;28;20341;-87
2022/08/09 12:50:27;;;;;;;;;;;32.90;34.20;;;;;;4985789;28;19997;-87
2022/08/09 12:52:53;;;;;;;;;;;33.00;33.90;;;;;;4968326;28;19992;-87
2022/08/09 12:55:26;;;;;;;;;;;33.00;33.80;;;;;;4985890;28;19976;-88
2022/08/09 12:57:52;;;;;;;;;;;33.10;33.90;;;;;;4985492;28;20550;-87
2022/08/09 13:00:20;;;;;;;;;;;33.00;34.30;;;;;;4985784;28;19909;-87
2022/08/09 13:02:53;;;;;;;;;;;33.00;34.00;;;;;;4985187;28;19910;-87
2022/08/09 13:05:19;;;;;;;;;;;33.00;34.10;;;;;;4968159;28;19929;-87
2022/08/09 13:08:03;;;;;;;;;;;33.10;34.70;;;;;;4985300;28;20474;-87
2022/08/09 13:10:29;;;;;;;;;;;33.30;35.10;;;;;;4982383;28;20387;-87
2022/08/09 13:12:54;;;;;;;;;;;33.20;34.40;;;;;;4981479;28;19920;-86
2022/08/09 13:15:20;;;;;;;;;;;33.30;34.00;;;;;;4985492;28;19949;-87
2022/08/09 13:17:45;;;;;;;;;;;33.20;34.10;;;;;;4975641;28;19925;-87
2022/08/09 13:20:11;;;;;;;;;;;33.00;33.90;;;;;;4981068;28;19909;-87
2022/08/09 13:22:46;;;;;;;;;;;32.90;34.10;;;;;;4985062;28;20692;-87
2022/08/09 13:25:11;;;;;;;;;;;32.80;33.80;;;;;;4985280;28;19913;-87
2022/08/09 13:27:38;;;;;;;;;;;32.90;34.10;;;;;;4985234;28;19969;-87
2022/08/09 13:30:03;;;;;;;;;;;33.00;34.40;;;;;;4984766;28;20029;-87
2022/08/09 13:32:55;;;;;;;;;;;33.10;34.40;;;;;;4984646;28;20017;-87
2022/08/09 13:35:22;;;;;;;;;;;33.10;33.20;;;;;;4981915;28;19964;-87
2022/08/09 13:37:48;;;;;;;;;;;33.30;35.60;;;;;;4984530;28;19918;-87
2022/08/09 13:40:14;;;;;;;;;;;33.10;33.70;;;;;;4985047;28;19917;-88
2022/08/09 13:42:40;;;;;;;;;;;33.10;34.60;;;;;;4967090;28;19937;-87
2022/08/09 13:45:06;;;;;;;;;;;33.00;34.40;;;;;;4984937;28;19944;-87
2022/08/09 13:47:32;;;;;;;;;;;33.20;34.90;;;;;;4984179;28;19909;-87
2022/08/09 13:49:58;;;;;;;;;;;33.50;32.90;;;;;;4984866;28;19925;-87
2022/08/09 13:52:24;;;;;;;;;;;33.10;31.60;;;;;;4984747;28;19909;-87
2022/08/09 13:54:50;;;;;;;;;;;32.90;31.40;;;;;;4984806;28;19928;-88
2022/08/09 13:57:15;;;;;;;;;;;32.90;31.30;;;;;;4984789;28;19929;-88
2022/08/09 13:59:41;;;;;;;;;;;32.90;31.60;;;;;;4984083;28;20368;-87
2022/08/09 14:02:06;;;;;;;;;;;32.90;31.70;;;;;;4984216;28;19909;-87
2022/08/09 14:04:32;;;;;;;;;;;32.90;31.10;;;;;;4984757;28;19916;-87
2022/08/09 14:06:58;;;;;;;;;;;32.80;31.50;;;;;;4984400;28;19909;-87
2022/08/09 14:09:24;;;;;;;;;;;32.70;31.80;;;;;;4984365;28;19910;-87
2022/08/09 14:11:50;;;;;;;;;;;32.70;31.90;;;;;;4977483;28;20366;-87
2022/08/09 14:14:16;;;;;;;;;;;32.80;32.20;;;;;;4984163;28;19913;-87
2022/08/09 14:16:42;;;;;;;;;;;32.70;32.10;;;;;;4965785;28;19920;-87